sensor_id;sensor_type;location;lat;lon;timestamp;pressure;altitude;pressure_sealevel;temperature;humidity
71964;BME280;59834;52.124;5.422;2023-09-19T00:00:35;100719.81;;;13.64;100.00
71964;BME280;59834;52.124;5.422;2023-09-19T00:03:02;100723.63;;;13.60;100.00
71964;BME280;59834;52.124;5.422;2023-09-19T00:05:33;100729.13;;;13.57;100.00
71964;BME280;59834;52.124;5.422;2023-09-19T00:08:01;100724.84;;;13.56;100.00
71964;BME280;59834;52.124;5.422;2023-09-19T00:10:32;100739.88;;;13.54;100.00
71964;BME280;59834;52.124;5.422;2023-09-19T00:13:04;100743.47;;;13.53;100.00
71964;BME280;59834;52.124;5.422;2023-09-19T00:15:43;100743.63;;;13.52;100.00
71964;BME280;59834;52.124;5.422;2023-09-19T00:18:16;100741.81;;;13.52;100.00
71964;BME280;59834;52.124;5.422;2023-09-19T00:20:45;100746.94;;;13.54;100.00
71964;BME280;59834;52.124;5.422;2023-09-19T00:23:16;100744.22;;;13.55;100.00
71964;BME280;59834;52.124;5.422;2023-09-19T00:25:43;100742.66;;;13.53;100.00
71964;BME280;59834;52.124;5.422;2023-09-19T00:28:09;100741.81;;;13.52;100.00
71964;BME280;59834;52.124;5.422;2023-09-19T00:30:36;100741.81;;;13.52;100.00
71964;BME280;59834;52.124;5.422;2023-09-19T00:33:05;100746.34;;;13.50;100.00
71964;BME280;59834;52.124;5.422;2023-09-19T00:35:33;100749.81;;;13.51;100.00
71964;BME280;59834;52.124;5.422;2023-09-19T00:38:00;100748.97;;;13.50;100.00
71964;BME280;59834;52.124;5.422;2023-09-19T00:40:28;100749.94;;;13.49;100.00
71964;BME280;59834;52.124;5.422;2023-09-19T00:42:57;100750.53;;;13.53;100.00
71964;BME280;59834;52.124;5.422;2023-09-19T00:45:26;100753.91;;;13.55;100.00
71964;BME280;59834;52.124;5.422;2023-09-19T00:47:53;100751.28;;;13.55;100.00
71964;BME280;59834;52.124;5.422;2023-09-19T00:50:23;100756.25;;;13.58;100.00
71964;BME280;59834;52.124;5.422;2023-09-19T00:52:54;100757.22;;;13.57;100.00
71964;BME280;59834;52.124;5.422;2023-09-19T00:55:24;100756.03;;;13.61;100.00
71964;BME280;59834;52.124;5.422;2023-09-19T00:57:52;100760.22;;;13.63;100.00
71964;BME280;59834;52.124;5.422;2023-09-19T01:00:19;100759.63;;;13.60;100.00
71964;BME280;59834;52.124;5.422;2023-09-19T01:02:47;100770.13;;;13.60;100.00
71964;BME280;59834;52.124;5.422;2023-09-19T01:05:15;100769.31;;;13.59;100.00
71964;BME280;59834;52.124;5.422;2023-09-19T01:07:42;100770.88;;;13.62;100.00
71964;BME280;59834;52.124;5.422;2023-09-19T01:10:12;100776.00;;;13.63;100.00
71964;BME280;59834;52.124;5.422;2023-09-19T01:13:03;100771.56;;;13.64;100.00
71964;BME280;59834;52.124;5.422;2023-09-19T01:20:57;100774.94;;;13.66;100.00
71964;BME280;59834;52.124;5.422;2023-09-19T01:23:53;100770.75;;;13.63;100.00
71964;BME280;59834;52.124;5.422;2023-09-19T01:27:02;100773.75;;;13.59;100.00
71964;BME280;59834;52.124;5.422;2023-09-19T01:29:48;100777.19;;;13.59;100.00
71964;BME280;59834;52.124;5.422;2023-09-19T01:32:19;100776.22;;;13.60;100.00
71964;BME280;59834;52.124;5.422;2023-09-19T01:34:54;100771.69;;;13.62;100.00
71964;BME280;59834;52.124;5.422;2023-09-19T01:37:23;100775.16;;;13.63;100.00
71964;BME280;59834;52.124;5.422;2023-09-19T01:39:57;100776.00;;;13.63;100.00
71964;BME280;59834;52.124;5.422;2023-09-19T01:42:45;100776.84;;;13.64;100.00
71964;BME280;59834;52.124;5.422;2023-09-19T01:45:33;100774.34;;;13.62;100.00
71964;BME280;59834;52.124;5.422;2023-09-19T01:48:37;100781.41;;;13.62;100.00
71964;BME280;59834;52.124;5.422;2023-09-19T01:51:07;100777.06;;;13.61;100.00
71964;BME280;59834;52.124;5.422;2023-09-19T01:53:36;100778.75;;;13.62;100.00
71964;BME280;59834;52.124;5.422;2023-09-19T01:56:08;100780.44;;;13.63;100.00
71964;BME280;59834;52.124;5.422;2023-09-19T01:58:59;100780.44;;;13.63;100.00
71964;BME280;59834;52.124;5.422;2023-09-19T02:01:31;100786.53;;;13.63;100.00
71964;BME280;59834;52.124;5.422;2023-09-19T02:03:58;100784.97;;;13.61;100.00
71964;BME280;59834;52.124;5.422;2023-09-19T02:06:25;100786.06;;;13.58;100.00
71964;BME280;59834;52.124;5.422;2023-09-19T02:08:51;100791.53;;;13.55;100.00
71964;BME280;59834;52.124;5.422;2023-09-19T02:11:18;100783.66;;;13.55;100.00
71964;BME280;59834;52.124;5.422;2023-09-19T02:13:45;100783.75;;;13.54;100.00
71964;BME280;59834;52.124;5.422;2023-09-19T02:16:12;100782.94;;;13.53;100.00
71964;BME280;59834;52.124;5.422;2023-09-19T02:18:39;100774.19;;;13.53;100.00
71964;BME280;59834;52.124;5.422;2023-09-19T02:21:06;100774.44;;;13.50;100.00
71964;BME280;59834;52.124;5.422;2023-09-19T02:23:33;100774.56;;;13.48;100.00
71964;BME280;59834;52.124;5.422;2023-09-19T02:25:59;100784.34;;;13.46;100.00
71964;BME280;59834;52.124;5.422;2023-09-19T02:28:30;100784.44;;;13.44;100.00
71964;BME280;59834;52.124;5.422;2023-09-19T02:30:59;100781.00;;;13.44;100.00
71964;BME280;59834;52.124;5.422;2023-09-19T02:33:25;100791.50;;;13.44;100.00
71964;BME280;59834;52.124;5.422;2023-09-19T02:35:58;100792.34;;;13.44;100.00
71964;BME280;59834;52.124;5.422;2023-09-19T02:38:25;100793.19;;;13.45;100.00
71964;BME280;59834;52.124;5.422;2023-09-19T02:40:52;100800.13;;;13.46;100.00
71964;BME280;59834;52.124;5.422;2023-09-19T02:43:19;100790.91;;;13.40;100.00
71964;BME280;59834;52.124;5.422;2023-09-19T02:45:46;100792.94;;;13.37;100.00
71964;BME280;59834;52.124;5.422;2023-09-19T02:48:13;100796.97;;;13.30;100.00
71964;BME280;59834;52.124;5.422;2023-09-19T02:50:46;100791.31;;;13.23;100.00
71964;BME280;59834;52.124;5.422;2023-09-19T02:53:12;100789.03;;;13.18;100.00
71964;BME280;59834;52.124;5.422;2023-09-19T02:55:40;100796.41;;;13.13;100.00
71964;BME280;59834;52.124;5.422;2023-09-19T02:58:07;100795.94;;;13.08;100.00
71964;BME280;59834;52.124;5.422;2023-09-19T03:00:41;100804.16;;;13.04;100.00
71964;BME280;59834;52.124;5.422;2023-09-19T03:03:09;100799.13;;;13.01;100.00
71964;BME280;59834;52.124;5.422;2023-09-19T03:05:35;100795.88;;;12.97;100.00
71964;BME280;59834;52.124;5.422;2023-09-19T03:08:05;100799.81;;;12.91;100.00
71964;BME280;59834;52.124;5.422;2023-09-19T03:10:32;100793.97;;;12.88;100.00
71964;BME280;59834;52.124;5.422;2023-09-19T03:12:59;100792.50;;;12.84;100.00
71964;BME280;59834;52.124;5.422;2023-09-19T03:15:26;100792.72;;;12.81;100.00
71964;BME280;59834;52.124;5.422;2023-09-19T03:17:53;100795.69;;;12.76;100.00
71964;BME280;59834;52.124;5.422;2023-09-19T03:20:20;100791.72;;;12.70;100.00
71964;BME280;59834;52.124;5.422;2023-09-19T03:22:47;100799.94;;;12.66;100.00
71964;BME280;59834;52.124;5.422;2023-09-19T03:25:15;100801.00;;;12.63;100.00
71964;BME280;59834;52.124;5.422;2023-09-19T03:27:44;100795.13;;;12.60;100.00
71964;BME280;59834;52.124;5.422;2023-09-19T03:30:11;100794.41;;;12.58;100.00
71964;BME280;59834;52.124;5.422;2023-09-19T03:32:46;100793.69;;;12.56;100.00
71964;BME280;59834;52.124;5.422;2023-09-19T03:35:13;100800.94;;;12.52;100.00
71964;BME280;59834;52.124;5.422;2023-09-19T03:37:41;100803.78;;;12.49;100.00
71964;BME280;59834;52.124;5.422;2023-09-19T03:40:09;100805.88;;;12.44;100.00
71964;BME280;59834;52.124;5.422;2023-09-19T03:42:40;100798.25;;;12.41;100.00
71964;BME280;59834;52.124;5.422;2023-09-19T03:45:08;100787.97;;;12.38;100.00
71964;BME280;59834;52.124;5.422;2023-09-19T03:47:39;100792.50;;;12.36;100.00
71964;BME280;59834;52.124;5.422;2023-09-19T03:50:07;100783.16;;;12.32;100.00
71964;BME280;59834;52.124;5.422;2023-09-19T03:52:34;100790.50;;;12.26;100.00
71964;BME280;59834;52.124;5.422;2023-09-19T03:55:01;100785.47;;;12.23;100.00
71964;BME280;59834;52.124;5.422;2023-09-19T03:57:31;100790.00;;;12.21;100.00
71964;BME280;59834;52.124;5.422;2023-09-19T03:59:58;100798.81;;;12.20;100.00
71964;BME280;59834;52.124;5.422;2023-09-19T04:02:24;100802.41;;;12.19;100.00
71964;BME280;59834;52.124;5.422;2023-09-19T04:04:51;100805.22;;;12.16;100.00
71964;BME280;59834;52.124;5.422;2023-09-19T04:07:19;100813.31;;;12.13;100.00
71964;BME280;59834;52.124;5.422;2023-09-19T04:10:15;100813.44;;;12.12;100.00
71964;BME280;59834;52.124;5.422;2023-09-19T04:12:52;100817.94;;;12.10;100.00
71964;BME280;59834;52.124;5.422;2023-09-19T04:15:20;100829.47;;;12.07;100.00
71964;BME280;59834;52.124;5.422;2023-09-19T04:17:50;100829.72;;;12.04;100.00
71964;BME280;59834;52.124;5.422;2023-09-19T04:20:17;100824.47;;;12.04;100.00
71964;BME280;59834;52.124;5.422;2023-09-19T04:22:46;100831.59;;;12.02;100.00
71964;BME280;59834;52.124;5.422;2023-09-19T04:25:13;100831.59;;;12.02;100.00
71964;BME280;59834;52.124;5.422;2023-09-19T04:27:40;100847.34;;;12.02;100.00
71964;BME280;59834;52.124;5.422;2023-09-19T04:30:08;100843.75;;;12.03;100.00
71964;BME280;59834;52.124;5.422;2023-09-19T04:32:38;100852.59;;;12.02;100.00
71964;BME280;59834;52.124;5.422;2023-09-19T04:38:36;100856.47;;;11.96;100.00
71964;BME280;59834;52.124;5.422;2023-09-19T04:41:03;100865.16;;;11.97;100.00
71964;BME280;59834;52.124;5.422;2023-09-19T04:43:29;100876.41;;;11.99;100.00
71964;BME280;59834;52.124;5.422;2023-09-19T04:45:57;100863.28;;;11.99;100.00
71964;BME280;59834;52.124;5.422;2023-09-19T04:48:27;100865.72;;;12.02;100.00
71964;BME280;59834;52.124;5.422;2023-09-19T04:50:55;100865.81;;;12.00;100.00
71964;BME280;59834;52.124;5.422;2023-09-19T04:53:22;100871.69;;;12.04;100.00
71964;BME280;59834;52.124;5.422;2023-09-19T04:55:52;100866.44;;;12.04;100.00
71964;BME280;59834;52.124;5.422;2023-09-19T04:58:19;100858.66;;;12.02;100.00
71964;BME280;59834;52.124;5.422;2023-09-19T05:00:46;100851.84;;;12.00;100.00
71964;BME280;59834;52.124;5.422;2023-09-19T05:03:13;100851.75;;;12.01;100.00
71964;BME280;59834;52.124;5.422;2023-09-19T05:05:39;100852.59;;;12.02;100.00
71964;BME280;59834;52.124;5.422;2023-09-19T05:08:09;100862.88;;;12.05;100.00
71964;BME280;59834;52.124;5.422;2023-09-19T05:10:36;100872.41;;;12.06;100.00
71964;BME280;59834;52.124;5.422;2023-09-19T05:13:04;100873.16;;;12.08;100.00
71964;BME280;59834;52.124;5.422;2023-09-19T05:15:31;100871.47;;;12.07;100.00
71964;BME280;59834;52.124;5.422;2023-09-19T05:18:23;100872.19;;;12.09;100.00
71964;BME280;59834;52.124;5.422;2023-09-19T05:20:49;100867.91;;;12.08;100.00
71964;BME280;59834;52.124;5.422;2023-09-19T05:23:16;100874.81;;;12.09;100.00
71964;BME280;59834;52.124;5.422;2023-09-19T05:25:43;100870.41;;;12.10;100.00
71964;BME280;59834;52.124;5.422;2023-09-19T05:28:10;100875.78;;;12.08;100.00
71964;BME280;59834;52.124;5.422;2023-09-19T05:30:38;100878.28;;;12.10;100.00
71964;BME280;59834;52.124;5.422;2023-09-19T05:33:06;100873.66;;;12.13;100.00
71964;BME280;59834;52.124;5.422;2023-09-19T05:35:34;100866.63;;;12.14;100.00
71964;BME280;59834;52.124;5.422;2023-09-19T05:38:00;100864.66;;;12.17;100.00
71964;BME280;59834;52.124;5.422;2023-09-19T05:40:27;100858.25;;;12.21;100.00
71964;BME280;59834;52.124;5.422;2023-09-19T05:42:54;100862.09;;;12.29;100.00
71964;BME280;59834;52.124;5.422;2023-09-19T05:45:20;100859.16;;;12.33;100.00
71964;BME280;59834;52.124;5.422;2023-09-19T05:47:51;100860.59;;;12.37;100.00
71964;BME280;59834;52.124;5.422;2023-09-19T05:50:22;100862.19;;;12.40;100.00
71964;BME280;59834;52.124;5.422;2023-09-19T05:52:52;100865.75;;;12.39;100.00
71964;BME280;59834;52.124;5.422;2023-09-19T05:55:19;100865.63;;;12.40;100.00
71964;BME280;59834;52.124;5.422;2023-09-19T05:57:51;100874.88;;;12.46;100.00
71964;BME280;59834;52.124;5.422;2023-09-19T06:00:22;100880.66;;;12.51;100.00
71964;BME280;59834;52.124;5.422;2023-09-19T06:02:51;100885.69;;;12.54;100.00
71964;BME280;59834;52.124;5.422;2023-09-19T06:08:35;100886.53;;;12.55;100.00
71964;BME280;59834;52.124;5.422;2023-09-19T06:11:02;100883.78;;;12.56;100.00
71964;BME280;59834;52.124;5.422;2023-09-19T06:13:29;100889.66;;;12.60;100.00
71964;BME280;59834;52.124;5.422;2023-09-19T06:15:56;100900.78;;;12.63;100.00
71964;BME280;59834;52.124;5.422;2023-09-19T06:18:26;100898.06;;;12.65;100.00
71964;BME280;59834;52.124;5.422;2023-09-19T06:20:53;100896.97;;;12.67;100.00
71964;BME280;59834;52.124;5.422;2023-09-19T06:23:21;100900.34;;;12.69;100.00
71964;BME280;59834;52.124;5.422;2023-09-19T06:25:49;100906.22;;;12.73;100.00
71964;BME280;59834;52.124;5.422;2023-09-19T06:28:16;100906.81;;;12.77;100.00
71964;BME280;59834;52.124;5.422;2023-09-19T06:30:46;100901.13;;;12.83;100.00
71964;BME280;59834;52.124;5.422;2023-09-19T06:33:13;100895.44;;;12.89;100.00
71964;BME280;59834;52.124;5.422;2023-09-19T06:35:43;100901.09;;;12.95;100.00
71964;BME280;59834;52.124;5.422;2023-09-19T06:38:11;100881.53;;;13.00;100.00
71964;BME280;59834;52.124;5.422;2023-09-19T06:47:24;100889.97;;;13.16;100.00
71964;BME280;59834;52.124;5.422;2023-09-19T06:49:52;100884.38;;;13.20;100.00
71964;BME280;59834;52.124;5.422;2023-09-19T06:52:18;100883.72;;;13.30;100.00
71964;BME280;59834;52.124;5.422;2023-09-19T06:54:48;100882.53;;;13.34;100.00
71964;BME280;59834;52.124;5.422;2023-09-19T06:57:16;100888.41;;;13.37;100.00
71964;BME280;59834;52.124;5.422;2023-09-19T06:59:43;100888.78;;;13.44;100.00
71964;BME280;59834;52.124;5.422;2023-09-19T07:05:22;100889.53;;;13.57;100.00
71964;BME280;59834;52.124;5.422;2023-09-19T07:07:49;100889.09;;;13.63;100.00
71964;BME280;59834;52.124;5.422;2023-09-19T07:10:16;100883.25;;;13.71;100.00
71964;BME280;59834;52.124;5.422;2023-09-19T07:12:44;100899.63;;;13.75;100.00
71964;BME280;59834;52.124;5.422;2023-09-19T07:15:11;100885.06;;;13.82;100.00
71964;BME280;59834;52.124;5.422;2023-09-19T07:17:38;100892.97;;;13.93;100.00
71964;BME280;59834;52.124;5.422;2023-09-19T07:20:05;100890.72;;;14.00;100.00
71964;BME280;59834;52.124;5.422;2023-09-19T07:22:34;100901.72;;;14.05;100.00
71964;BME280;59834;52.124;5.422;2023-09-19T07:25:01;100898.75;;;14.09;99.85
71964;BME280;59834;52.124;5.422;2023-09-19T07:27:28;100909.75;;;14.14;99.43
71964;BME280;59834;52.124;5.422;2023-09-19T07:29:55;100904.13;;;14.19;99.21
71964;BME280;59834;52.124;5.422;2023-09-19T07:32:22;100913.47;;;14.23;99.14
71964;BME280;59834;52.124;5.422;2023-09-19T07:34:48;100911.19;;;14.30;98.85
71964;BME280;59834;52.124;5.422;2023-09-19T07:37:15;100918.72;;;14.34;97.85
71964;BME280;59834;52.124;5.422;2023-09-19T07:39:42;100920.50;;;14.45;97.28
71964;BME280;59834;52.124;5.422;2023-09-19T07:42:11;100915.53;;;14.53;97.72
71964;BME280;59834;52.124;5.422;2023-09-19T07:44:44;100915.97;;;14.58;96.29
71964;BME280;59834;52.124;5.422;2023-09-19T07:47:14;100919.84;;;14.66;95.91
71964;BME280;59834;52.124;5.422;2023-09-19T07:49:41;100921.38;;;14.79;96.10
71964;BME280;59834;52.124;5.422;2023-09-19T07:52:09;100925.53;;;14.93;95.66
71964;BME280;59834;52.124;5.422;2023-09-19T07:54:36;100922.28;;;15.01;94.63
71964;BME280;59834;52.124;5.422;2023-09-19T07:57:05;100914.94;;;15.04;94.24
71964;BME280;59834;52.124;5.422;2023-09-19T07:59:31;100930.13;;;15.12;94.67
71964;BME280;59834;52.124;5.422;2023-09-19T08:01:58;100915.19;;;15.13;93.69
71964;BME280;59834;52.124;5.422;2023-09-19T08:04:25;100914.47;;;15.11;93.26
71964;BME280;59834;52.124;5.422;2023-09-19T08:09:50;100922.53;;;15.30;92.64
71964;BME280;59834;52.124;5.422;2023-09-19T08:12:16;100915.06;;;15.35;92.01
71964;BME280;59834;52.124;5.422;2023-09-19T08:14:43;100924.16;;;15.42;92.51
71964;BME280;59834;52.124;5.422;2023-09-19T08:17:10;100928.91;;;15.60;92.87
71964;BME280;59834;52.124;5.422;2023-09-19T08:19:36;100920.66;;;15.53;91.38
71964;BME280;59834;52.124;5.422;2023-09-19T08:22:13;100921.50;;;15.42;92.63
71964;BME280;59834;52.124;5.422;2023-09-19T08:24:40;100915.56;;;15.40;92.35
71964;BME280;59834;52.124;5.422;2023-09-19T08:27:07;100916.00;;;15.45;92.59
71964;BME280;59834;52.124;5.422;2023-09-19T08:29:36;100917.47;;;15.59;92.77
71964;BME280;59834;52.124;5.422;2023-09-19T08:32:02;100906.81;;;15.61;90.76
71964;BME280;59834;52.124;5.422;2023-09-19T08:34:31;100915.66;;;15.71;91.37
71964;BME280;59834;52.124;5.422;2023-09-19T08:37:00;100912.94;;;15.82;92.29
71964;BME280;59834;52.124;5.422;2023-09-19T08:39:27;100921.34;;;15.87;92.36
71964;BME280;59834;52.124;5.422;2023-09-19T08:41:58;100899.28;;;15.98;92.07
71964;BME280;59834;52.124;5.422;2023-09-19T08:44:26;100906.78;;;15.93;90.11
71964;BME280;59834;52.124;5.422;2023-09-19T08:47:16;100907.47;;;15.95;91.27
71964;BME280;59834;52.124;5.422;2023-09-19T08:49:58;100912.81;;;16.05;89.85
71964;BME280;59834;52.124;5.422;2023-09-19T08:52:37;100911.78;;;16.17;90.59
71964;BME280;59834;52.124;5.422;2023-09-19T08:55:07;100899.19;;;16.09;87.85
71964;BME280;59834;52.124;5.422;2023-09-19T08:57:38;100895.34;;;16.13;90.03
71964;BME280;59834;52.124;5.422;2023-09-19T09:00:09;100900.13;;;16.29;89.50
71964;BME280;59834;52.124;5.422;2023-09-19T09:02:38;100906.75;;;16.44;87.97
71964;BME280;59834;52.124;5.422;2023-09-19T09:05:10;100908.84;;;16.50;87.42
71964;BME280;59834;52.124;5.422;2023-09-19T09:07:43;100904.69;;;16.58;86.02
71964;BME280;59834;52.124;5.422;2023-09-19T09:10:10;100903.03;;;16.57;85.66
71964;BME280;59834;52.124;5.422;2023-09-19T09:12:37;100918.78;;;16.68;86.78
71964;BME280;59834;52.124;5.422;2023-09-19T09:15:07;100907.66;;;16.74;86.44
71964;BME280;59834;52.124;5.422;2023-09-19T09:17:38;100901.88;;;16.80;84.79
71964;BME280;59834;52.124;5.422;2023-09-19T09:20:05;100898.09;;;16.83;84.56
71964;BME280;59834;52.124;5.422;2023-09-19T09:22:36;100902.03;;;16.98;84.69
71964;BME280;59834;52.124;5.422;2023-09-19T09:25:06;100897.16;;;16.93;83.78
71964;BME280;59834;52.124;5.422;2023-09-19T09:27:33;100898.94;;;16.83;82.61
71964;BME280;59834;52.124;5.422;2023-09-19T09:30:00;100895.25;;;16.65;82.35
71964;BME280;59834;52.124;5.422;2023-09-19T09:32:29;100898.44;;;16.59;82.23
71964;BME280;59834;52.124;5.422;2023-09-19T09:34:58;100888.31;;;16.64;82.24
71964;BME280;59834;52.124;5.422;2023-09-19T09:37:31;100888.22;;;16.75;83.37
71964;BME280;59834;52.124;5.422;2023-09-19T09:40:05;100883.94;;;17.03;81.10
71964;BME280;59834;52.124;5.422;2023-09-19T09:42:40;100884.78;;;17.04;81.76
71964;BME280;59834;52.124;5.422;2023-09-19T09:45:15;100887.28;;;17.15;80.56
71964;BME280;59834;52.124;5.422;2023-09-19T09:47:43;100874.34;;;17.22;80.41
71964;BME280;59834;52.124;5.422;2023-09-19T09:50:26;100876.44;;;17.28;79.65
71964;BME280;59834;52.124;5.422;2023-09-19T09:53:02;100856.38;;;17.44;77.76
71964;BME280;59834;52.124;5.422;2023-09-19T09:56:03;100872.38;;;17.53;79.82
71964;BME280;59834;52.124;5.422;2023-09-19T09:58:35;100870.28;;;17.47;78.25
71964;BME280;59834;52.124;5.422;2023-09-19T10:01:03;100877.53;;;17.64;79.52
71964;BME280;59834;52.124;5.422;2023-09-19T10:03:38;100877.81;;;17.61;79.04
71964;BME280;59834;52.124;5.422;2023-09-19T10:06:13;100873.75;;;17.57;78.59
71964;BME280;59834;52.124;5.422;2023-09-19T10:09:09;100873.91;;;17.46;79.13
71964;BME280;59834;52.124;5.422;2023-09-19T10:11:47;100882.56;;;17.48;78.36
71964;BME280;59834;52.124;5.422;2023-09-19T10:14:27;100889.94;;;17.34;78.60
71964;BME280;59834;52.124;5.422;2023-09-19T10:17:18;100881.19;;;17.34;79.76
71964;BME280;59834;52.124;5.422;2023-09-19T10:19:54;100877.25;;;17.38;79.75
71964;BME280;59834;52.124;5.422;2023-09-19T10:22:26;100890.50;;;17.28;79.51
71964;BME280;59834;52.124;5.422;2023-09-19T10:24:53;100884.78;;;17.23;79.07
71964;BME280;59834;52.124;5.422;2023-09-19T10:27:29;100866.69;;;17.28;78.92
71964;BME280;59834;52.124;5.422;2023-09-19T10:29:56;100866.69;;;17.48;77.00
71964;BME280;59834;52.124;5.422;2023-09-19T10:32:27;100872.91;;;17.66;76.47
71964;BME280;59834;52.124;5.422;2023-09-19T10:34:55;100871.63;;;17.70;77.12
71964;BME280;59834;52.124;5.422;2023-09-19T10:37:23;100855.06;;;17.87;75.99
71964;BME280;59834;52.124;5.422;2023-09-19T10:39:54;100842.63;;;17.98;76.73
71964;BME280;59834;52.124;5.422;2023-09-19T10:42:23;100841.44;;;18.10;75.52
71964;BME280;59834;52.124;5.422;2023-09-19T10:44:54;100844.88;;;18.20;75.86
71964;BME280;59834;52.124;5.422;2023-09-19T10:47:26;100845.06;;;18.09;75.72
71964;BME280;59834;52.124;5.422;2023-09-19T10:49:53;100832.78;;;18.18;75.22
71964;BME280;59834;52.124;5.422;2023-09-19T10:52:24;100835.97;;;18.21;75.38
71964;BME280;59834;52.124;5.422;2023-09-19T10:54:53;100835.06;;;18.03;76.74
71964;BME280;59834;52.124;5.422;2023-09-19T10:57:24;100829.66;;;17.95;75.78
71964;BME280;59834;52.124;5.422;2023-09-19T11:00:02;100821.69;;;18.04;75.97
71964;BME280;59834;52.124;5.422;2023-09-19T11:05:36;100819.69;;;18.34;73.76
71964;BME280;59834;52.124;5.422;2023-09-19T11:08:07;100810.91;;;18.33;74.59
71964;BME280;59834;52.124;5.422;2023-09-19T11:10:45;100813.00;;;18.57;74.46
71964;BME280;59834;52.124;5.422;2023-09-19T11:13:26;100811.09;;;18.50;73.23
71964;BME280;59834;52.124;5.422;2023-09-19T11:26:49;100809.63;;;18.65;73.88
71964;BME280;59834;52.124;5.422;2023-09-19T11:31:52;100798.81;;;18.76;72.21
71964;BME280;59834;52.124;5.422;2023-09-19T11:34:44;100814.44;;;18.52;73.07
71964;BME280;59834;52.124;5.422;2023-09-19T11:40:08;100802.50;;;18.48;74.27
71964;BME280;59834;52.124;5.422;2023-09-19T11:42:54;100801.16;;;18.34;74.22
71964;BME280;59834;52.124;5.422;2023-09-19T11:48:18;100796.91;;;18.23;74.40
71964;BME280;59834;52.124;5.422;2023-09-19T11:50:45;100797.53;;;18.35;72.90
71964;BME280;59834;52.124;5.422;2023-09-19T11:53:13;100781.28;;;18.48;71.84
71964;BME280;59834;52.124;5.422;2023-09-19T11:55:45;100781.81;;;18.69;71.82
71964;BME280;59834;52.124;5.422;2023-09-19T11:58:15;100781.13;;;18.67;71.10
71964;BME280;59834;52.124;5.422;2023-09-19T12:00:43;100783.84;;;18.57;71.00
71964;BME280;59834;52.124;5.422;2023-09-19T12:03:12;100796.97;;;18.59;71.52
71964;BME280;59834;52.124;5.422;2023-09-19T12:05:41;100795.75;;;18.53;70.81
71964;BME280;59834;52.124;5.422;2023-09-19T12:08:08;100801.78;;;18.46;71.17
71964;BME280;59834;52.124;5.422;2023-09-19T12:10:48;100805.56;;;18.43;72.15
71964;BME280;59834;52.124;5.422;2023-09-19T12:13:17;100809.03;;;18.44;72.58
71964;BME280;59834;52.124;5.422;2023-09-19T12:15:45;100804.63;;;18.62;72.17
71964;BME280;59834;52.124;5.422;2023-09-19T12:18:28;100805.16;;;18.66;70.52
71964;BME280;59834;52.124;5.422;2023-09-19T12:20:56;100802.94;;;18.61;71.21
71964;BME280;59834;52.124;5.422;2023-09-19T12:23:24;100798.78;;;18.58;70.32
71964;BME280;59834;52.124;5.422;2023-09-19T12:25:52;100791.56;;;18.51;70.65
71964;BME280;59834;52.124;5.422;2023-09-19T12:28:26;100801.25;;;18.42;71.48
71964;BME280;59834;52.124;5.422;2023-09-19T12:30:53;100789.59;;;18.35;72.77
71964;BME280;59834;52.124;5.422;2023-09-19T12:33:21;100802.91;;;18.25;71.88
71964;BME280;59834;52.124;5.422;2023-09-19T12:35:52;100786.53;;;18.30;72.14
71964;BME280;59834;52.124;5.422;2023-09-19T12:40:51;100796.09;;;18.41;72.15
71964;BME280;59834;52.124;5.422;2023-09-19T12:43:19;100790.25;;;18.37;71.88
71964;BME280;59834;52.124;5.422;2023-09-19T12:45:46;100796.78;;;18.25;72.29
71964;BME280;59834;52.124;5.422;2023-09-19T12:48:25;100802.13;;;18.15;73.24
71964;BME280;59834;52.124;5.422;2023-09-19T12:51:07;100798.81;;;18.03;73.63
71964;BME280;59834;52.124;5.422;2023-09-19T12:53:40;100803.56;;;18.00;74.77
71964;BME280;59834;52.124;5.422;2023-09-19T12:56:42;100804.66;;;18.07;75.05
71964;BME280;59834;52.124;5.422;2023-09-19T12:59:14;100808.00;;;18.09;75.20
71964;BME280;59834;52.124;5.422;2023-09-19T13:01:42;100797.88;;;18.22;75.48
71964;BME280;59834;52.124;5.422;2023-09-19T13:04:21;100804.34;;;18.37;74.29
71964;BME280;59834;52.124;5.422;2023-09-19T13:06:56;100800.97;;;18.45;73.93
71964;BME280;59834;52.124;5.422;2023-09-19T13:09:28;100806.09;;;18.47;74.32
71964;BME280;59834;52.124;5.422;2023-09-19T13:12:01;100803.25;;;18.58;72.55
71964;BME280;59834;52.124;5.422;2023-09-19T13:14:29;100796.28;;;18.57;73.02
71964;BME280;59834;52.124;5.422;2023-09-19T13:17:05;100803.44;;;18.47;72.43
71964;BME280;59834;52.124;5.422;2023-09-19T13:19:45;100797.31;;;18.28;73.11
71964;BME280;59834;52.124;5.422;2023-09-19T13:22:42;100815.91;;;18.19;74.72
71964;BME280;59834;52.124;5.422;2023-09-19T13:25:17;100821.38;;;18.07;75.64
71964;BME280;59834;52.124;5.422;2023-09-19T13:27:48;100807.03;;;18.00;76.96
71964;BME280;59834;52.124;5.422;2023-09-19T13:30:18;100818.63;;;17.99;77.31
71964;BME280;59834;52.124;5.422;2023-09-19T13:32:47;100810.56;;;18.01;76.84
71964;BME280;59834;52.124;5.422;2023-09-19T13:35:15;100798.59;;;18.24;76.34
71964;BME280;59834;52.124;5.422;2023-09-19T13:37:43;100794.84;;;18.45;75.19
71964;BME280;59834;52.124;5.422;2023-09-19T13:40:14;100803.84;;;18.52;74.49
71964;BME280;59834;52.124;5.422;2023-09-19T13:42:42;100790.84;;;18.58;73.69
71964;BME280;59834;52.124;5.422;2023-09-19T13:45:09;100783.25;;;18.64;73.78
71964;BME280;59834;52.124;5.422;2023-09-19T13:47:39;100794.53;;;18.66;73.76
71964;BME280;59834;52.124;5.422;2023-09-19T13:50:08;100776.81;;;18.66;73.08
71964;BME280;59834;52.124;5.422;2023-09-19T13:52:35;100782.22;;;18.74;73.48